Time;durP1;ratioP1;P1;durP2;ratioP2;P2;SDS_P1;SDS_P2;PMS_P1;PMS_P2;Temp;Humidity;BMP_temperature;BMP_pressure;BME280_temperature;BME280_humidity;BME280_pressure;Samples;Min_cycle;Max_cycle;Signal;HPM_P1;HPM_P2
2024/04/10 00:00:59;;;;;;;6.50;4.28;;;15.60;99.90;;;;;;5433199;26;20068;-80
2024/04/10 00:03:28;;;;;;;7.40;4.43;;;15.60;99.90;;;;;;5434743;26;20416;-80
2024/04/10 00:05:59;;;;;;;8.27;4.78;;;15.60;99.90;;;;;;5427217;26;20012;-80
2024/04/10 00:08:27;;;;;;;8.07;4.70;;;15.60;99.90;;;;;;5435592;26;20377;-80
2024/04/10 00:10:53;;;;;;;10.50;4.82;;;15.60;99.90;;;;;;5434304;26;20498;-80
2024/04/10 00:13:19;;;;;;;6.68;3.50;;;15.60;99.90;;;;;;5437410;26;20033;-80
2024/04/10 00:15:45;;;;;;;6.05;4.18;;;15.60;99.90;;;;;;5437878;26;19996;-80
2024/04/10 00:18:10;;;;;;;12.15;4.00;;;15.60;99.90;;;;;;5436458;26;20003;-80
2024/04/10 00:20:36;;;;;;;5.32;3.95;;;15.70;99.90;;;;;;5430154;26;20006;-80
2024/04/10 00:23:05;;;;;;;5.70;3.83;;;15.70;99.90;;;;;;5431662;26;20003;-80
2024/04/10 00:25:31;;;;;;;6.78;3.88;;;15.70;99.90;;;;;;5437292;26;19991;-80
2024/04/10 00:28:00;;;;;;;8.88;3.85;;;15.70;99.90;;;;;;5431673;26;19996;-80
2024/04/10 00:30:26;;;;;;;6.40;3.40;;;15.70;99.90;;;;;;5437470;26;20521;-80
2024/04/10 00:32:52;;;;;;;7.10;4.43;;;15.70;99.90;;;;;;5429554;26;20011;-79
2024/04/10 00:35:18;;;;;;;5.18;3.88;;;15.70;99.90;;;;;;5435496;26;20003;-79
2024/04/10 00:37:44;;;;;;;11.57;4.18;;;15.70;99.90;;;;;;5430995;26;19996;-79
2024/04/10 00:40:10;;;;;;;6.60;3.55;;;15.70;99.90;;;;;;5435602;26;19995;-79
2024/04/10 00:42:35;;;;;;;5.47;3.80;;;15.70;99.90;;;;;;5431838;26;20396;-79
2024/04/10 00:45:01;;;;;;;5.15;3.60;;;15.70;99.90;;;;;;5436625;26;20003;-78
2024/04/10 00:47:27;;;;;;;6.32;4.35;;;15.70;99.90;;;;;;5431314;26;20449;-78
2024/04/10 00:49:53;;;;;;;5.45;3.28;;;15.70;99.90;;;;;;5428733;26;20027;-78
2024/04/10 00:52:19;;;;;;;3.78;3.30;;;15.70;99.90;;;;;;5432063;26;20007;-78
2024/04/10 00:54:46;;;;;;;10.45;3.35;;;15.70;99.90;;;;;;5431762;26;19995;-78
2024/04/10 00:57:11;;;;;;;7.97;4.20;;;15.70;99.90;;;;;;5433073;26;20342;-78
2024/04/10 00:59:38;;;;;;;3.47;3.05;;;15.70;99.90;;;;;;5433768;26;20001;-79
2024/04/10 01:02:06;;;;;;;9.18;3.30;;;15.80;99.90;;;;;;5434006;26;20333;-78
2024/04/10 01:04:32;;;;;;;8.40;3.75;;;15.80;99.90;;;;;;5432028;26;19994;-78
2024/04/10 01:06:58;;;;;;;6.65;3.15;;;15.80;99.90;;;;;;5431611;26;20446;-78
2024/04/10 01:09:24;;;;;;;6.65;3.20;;;15.80;99.90;;;;;;5435748;26;20007;-78
2024/04/10 01:11:49;;;;;;;5.80;3.00;;;15.80;99.90;;;;;;5428123;26;19991;-78
2024/04/10 01:14:16;;;;;;;8.93;3.20;;;15.80;99.90;;;;;;5435226;26;20027;-78
2024/04/10 01:16:42;;;;;;;7.35;3.30;;;15.90;99.90;;;;;;5438054;26;20448;-78
2024/04/10 01:19:08;;;;;;;7.13;4.10;;;15.90;99.90;;;;;;5417190;26;20010;-78
2024/04/10 01:21:34;;;;;;;11.18;4.50;;;15.90;99.90;;;;;;5436120;26;19994;-78
2024/04/10 01:24:00;;;;;;;5.40;3.75;;;15.90;99.90;;;;;;5430641;26;20007;-78
2024/04/10 01:26:26;;;;;;;9.57;5.00;;;16.00;99.90;;;;;;5427036;26;20003;-78
2024/04/10 01:28:51;;;;;;;6.53;4.82;;;15.90;99.90;;;;;;5423369;26;20003;-78
2024/04/10 01:31:17;;;;;;;6.03;4.60;;;15.90;99.90;;;;;;5436773;26;20006;-78
2024/04/10 01:33:43;;;;;;;9.68;5.53;;;15.90;99.90;;;;;;5430239;26;20437;-78
2024/04/10 01:36:09;;;;;;;5.50;4.85;;;15.90;99.90;;;;;;5431541;26;20348;-78
2024/04/10 01:38:35;;;;;;;7.93;5.50;;;15.90;99.90;;;;;;5433441;26;19995;-78
2024/04/10 01:41:01;;;;;;;9.45;5.03;;;15.90;99.90;;;;;;5432014;26;20018;-78
2024/04/10 01:43:26;;;;;;;7.03;5.30;;;15.90;99.90;;;;;;5434487;26;19995;-78
2024/04/10 01:45:52;;;;;;;6.22;5.38;;;15.90;99.90;;;;;;5432943;26;20027;-78
2024/04/10 01:48:18;;;;;;;9.35;5.47;;;15.90;99.90;;;;;;5430189;26;20341;-78
2024/04/10 01:50:44;;;;;;;6.38;5.38;;;15.90;99.90;;;;;;5429887;26;19991;-78
2024/04/10 01:53:10;;;;;;;11.32;7.35;;;15.90;99.90;;;;;;5432777;26;19999;-78
2024/04/10 01:55:36;;;;;;;14.68;9.95;;;15.90;99.90;;;;;;5432197;26;19994;-78
2024/04/10 01:58:02;;;;;;;14.85;10.45;;;15.90;99.90;;;;;;5432039;26;19991;-78
2024/04/10 02:00:27;;;;;;;12.95;8.95;;;15.90;99.90;;;;;;5435139;26;19991;-78
2024/04/10 02:02:56;;;;;;;15.55;8.93;;;16.00;99.90;;;;;;5430799;26;20006;-78
2024/04/10 02:05:22;;;;;;;16.00;9.23;;;16.00;99.90;;;;;;5433074;26;20001;-78
2024/04/10 02:07:48;;;;;;;18.00;9.25;;;16.00;99.90;;;;;;5430719;26;20465;-78
2024/04/10 02:10:13;;;;;;;14.68;10.70;;;16.00;99.90;;;;;;5436245;26;20005;-78
2024/04/10 02:12:39;;;;;;;20.83;13.63;;;16.00;99.90;;;;;;5430026;26;20012;-78
2024/04/10 02:15:05;;;;;;;20.63;14.55;;;16.10;99.90;;;;;;5436359;26;19998;-78
2024/04/10 02:17:31;;;;;;;28.52;22.15;;;16.00;99.90;;;;;;5435807;26;19995;-78
2024/04/10 02:19:56;;;;;;;33.50;23.52;;;16.10;99.90;;;;;;5431739;26;20330;-78
2024/04/10 02:22:22;;;;;;;32.55;23.73;;;16.00;99.90;;;;;;5428565;26;19995;-78
2024/04/10 02:24:51;;;;;;;29.95;22.83;;;16.00;99.90;;;;;;5432516;26;19997;-78
2024/04/10 02:27:17;;;;;;;31.05;24.15;;;16.10;99.90;;;;;;5428445;26;19991;-78
2024/04/10 02:29:43;;;;;;;28.40;23.08;;;16.10;99.90;;;;;;5432681;26;20360;-78
2024/04/10 02:32:08;;;;;;;28.88;23.75;;;16.10;99.90;;;;;;5433753;26;19992;-78
2024/04/10 02:34:35;;;;;;;31.42;23.00;;;16.10;99.90;;;;;;5429956;26;20006;-78
2024/04/10 02:37:01;;;;;;;30.95;22.80;;;16.10;99.90;;;;;;5434996;26;20000;-78
2024/04/10 02:39:28;;;;;;;31.35;23.20;;;16.10;99.90;;;;;;5439519;26;20064;-78
2024/04/10 02:41:53;;;;;;;33.50;22.67;;;16.10;99.90;;;;;;5436104;26;19994;-78
2024/04/10 02:44:19;;;;;;;34.58;23.75;;;16.10;99.90;;;;;;5435646;26;20011;-78
2024/04/10 02:46:45;;;;;;;29.77;23.45;;;16.10;99.90;;;;;;5431819;26;19991;-78
2024/04/10 02:49:10;;;;;;;31.65;23.67;;;16.00;99.90;;;;;;5437501;26;20021;-78
2024/04/10 02:51:36;;;;;;;30.90;23.35;;;16.10;99.90;;;;;;5434457;26;19992;-78
2024/04/10 02:54:02;;;;;;;31.10;25.63;;;16.10;99.90;;;;;;5432270;26;20007;-78
2024/04/10 02:56:27;;;;;;;38.58;25.42;;;16.10;99.90;;;;;;5436724;26;20077;-78
2024/04/10 02:58:53;;;;;;;32.30;25.63;;;16.10;99.90;;;;;;5430804;26;19995;-78
2024/04/10 03:01:19;;;;;;;32.70;26.27;;;16.10;99.90;;;;;;5438926;26;20002;-78
2024/04/10 03:03:44;;;;;;;38.08;27.38;;;16.10;99.90;;;;;;5431990;26;19996;-78
2024/04/10 03:06:10;;;;;;;34.03;27.42;;;16.10;99.90;;;;;;5438513;26;20002;-78
2024/04/10 03:08:37;;;;;;;36.97;27.63;;;16.00;99.90;;;;;;5431387;26;20007;-78
2024/04/10 03:11:05;;;;;;;42.60;27.38;;;16.00;99.90;;;;;;5437784;26;20067;-78
2024/04/10 03:13:32;;;;;;;37.42;28.42;;;16.10;99.90;;;;;;5431232;26;20392;-78
2024/04/10 03:15:57;;;;;;;41.28;28.15;;;16.00;99.90;;;;;;5437989;26;19997;-78
2024/04/10 03:18:23;;;;;;;38.53;28.05;;;16.00;99.90;;;;;;5434560;26;20027;-78
2024/04/10 03:20:49;;;;;;;37.30;29.13;;;15.90;99.90;;;;;;5432136;26;19991;-78
2024/04/10 03:23:14;;;;;;;37.10;28.13;;;15.90;99.90;;;;;;5425339;26;20032;-78
2024/04/10 03:25:40;;;;;;;41.58;29.67;;;15.90;99.90;;;;;;5434956;26;19995;-78
2024/04/10 03:28:06;;;;;;;36.45;28.00;;;15.90;99.90;;;;;;5435230;26;19999;-78
2024/04/10 03:30:34;;;;;;;39.05;29.25;;;15.90;99.90;;;;;;5435718;26;20051;-78
2024/04/10 03:33:00;;;;;;;31.38;26.00;;;15.90;99.90;;;;;;5430324;26;20322;-78
2024/04/10 03:35:25;;;;;;;41.83;28.77;;;15.90;99.90;;;;;;5436461;26;20009;-78
2024/04/10 03:37:51;;;;;;;34.17;25.73;;;15.90;99.90;;;;;;5434036;26;20007;-78
2024/04/10 03:40:17;;;;;;;35.83;27.08;;;15.90;99.90;;;;;;5436851;26;20334;-78
2024/04/10 03:42:43;;;;;;;30.95;27.13;;;15.90;99.90;;;;;;5430984;26;20094;-78
2024/04/10 03:45:12;;;;;;;33.10;26.30;;;16.00;99.90;;;;;;5437518;26;20010;-78
2024/04/10 03:47:41;;;;;;;34.67;27.13;;;15.80;99.90;;;;;;5435584;26;19995;-78
2024/04/10 03:50:08;;;;;;;35.88;26.13;;;15.90;99.90;;;;;;5426919;26;19996;-78
2024/04/10 03:52:34;;;;;;;33.10;28.20;;;15.80;99.90;;;;;;5436743;26;19995;-78
2024/04/10 03:54:59;;;;;;;36.67;26.63;;;15.90;99.90;;;;;;5426090;26;20450;-78
2024/04/10 03:57:25;;;;;;;36.45;27.08;;;15.90;99.90;;;;;;5438210;26;20044;-78
2024/04/10 03:59:51;;;;;;;35.20;26.02;;;15.90;99.90;;;;;;5431925;26;19992;-78
2024/04/10 04:02:17;;;;;;;33.75;25.52;;;15.90;99.90;;;;;;5436178;26;20006;-78
2024/04/10 04:04:43;;;;;;;32.88;26.00;;;16.00;99.90;;;;;;5416656;26;19997;-78
2024/04/10 04:07:10;;;;;;;39.58;26.42;;;16.00;99.90;;;;;;5436000;26;20505;-78
2024/04/10 04:09:36;;;;;;;33.05;26.58;;;16.00;99.90;;;;;;5431771;26;20011;-78
2024/04/10 04:12:02;;;;;;;31.70;25.92;;;16.00;99.90;;;;;;5435315;26;20321;-78
2024/04/10 04:14:28;;;;;;;29.13;23.73;;;16.00;99.90;;;;;;5430918;26;19995;-78
2024/04/10 04:16:53;;;;;;;27.33;22.70;;;16.00;99.90;;;;;;5431552;26;19999;-78
2024/04/10 04:19:19;;;;;;;29.42;23.30;;;16.00;99.90;;;;;;5427425;26;19992;-77
2024/04/10 04:21:45;;;;;;;26.98;22.75;;;16.00;99.90;;;;;;5433579;26;20002;-77
2024/04/10 04:24:12;;;;;;;31.65;22.42;;;16.00;99.90;;;;;;5433884;26;19998;-77
2024/04/10 04:26:37;;;;;;;32.25;24.30;;;16.00;99.90;;;;;;5435050;26;20002;-77
2024/04/10 04:29:03;;;;;;;28.33;23.50;;;16.00;99.90;;;;;;5434802;26;19999;-78
2024/04/10 04:31:29;;;;;;;33.88;24.63;;;15.90;99.90;;;;;;5434047;26;20524;-78
2024/04/10 04:33:55;;;;;;;30.17;23.92;;;15.90;99.90;;;;;;5435782;26;20005;-78
2024/04/10 04:36:21;;;;;;;27.90;23.63;;;15.80;99.90;;;;;;5436209;26;20324;-77
2024/04/10 04:38:46;;;;;;;34.88;26.98;;;15.80;99.90;;;;;;5432382;26;20069;-77
2024/04/10 04:41:12;;;;;;;37.80;26.05;;;15.80;99.90;;;;;;5436694;26;20006;-78
2024/04/10 04:43:38;;;;;;;33.75;26.42;;;15.80;99.90;;;;;;5430994;26;19996;-78
2024/04/10 04:46:07;;;;;;;33.30;26.50;;;15.80;99.90;;;;;;5437343;26;20001;-78
2024/04/10 04:48:33;;;;;;;34.53;26.83;;;15.80;99.90;;;;;;5431798;26;20415;-78
2024/04/10 04:51:00;;;;;;;37.67;25.15;;;15.80;99.90;;;;;;5437226;26;20031;-78
2024/04/10 04:53:25;;;;;;;31.60;24.27;;;15.80;99.90;;;;;;5430927;26;19999;-78
2024/04/10 04:55:51;;;;;;;32.20;23.27;;;15.70;99.90;;;;;;5423466;26;20510;-78
2024/04/10 04:58:17;;;;;;;33.55;23.20;;;15.70;99.90;;;;;;5435170;26;19995;-78
2024/04/10 05:00:42;;;;;;;33.85;25.33;;;15.60;99.90;;;;;;5431166;26;19988;-78
2024/04/10 05:04:54;;;;;;;38.35;30.80;;;15.60;99.90;;;;;;5435623;26;20003;-78
2024/04/10 05:05:57;;;;;;;40.72;34.45;;;15.50;99.90;;;;;;5430214;26;20011;-78
2024/04/10 05:08:23;;;;;;;56.05;36.55;;;15.50;99.90;;;;;;5432524;26;20353;-77
2024/04/10 05:10:49;;;;;;;57.13;35.55;;;15.60;99.90;;;;;;5428281;26;20039;-78
2024/04/10 05:13:14;;;;;;;49.45;32.88;;;15.50;99.90;;;;;;5424202;26;20336;-79
2024/04/10 05:15:40;;;;;;;55.80;35.88;;;15.40;99.90;;;;;;5427340;26;20007;-79
2024/04/10 05:18:06;;;;;;;45.80;31.52;;;15.30;99.90;;;;;;5431365;26;20003;-79
2024/04/10 05:20:31;;;;;;;34.92;28.35;;;15.30;99.90;;;;;;5417642;26;20015;-79
2024/04/10 05:22:57;;;;;;;22.45;19.13;;;15.20;99.90;;;;;;5430847;26;20007;-79
2024/04/10 05:25:23;;;;;;;17.17;7.65;;;15.20;99.90;;;;;;5415315;26;20009;-79
2024/04/10 05:27:49;;;;;;;6.72;5.25;;;15.10;99.90;;;;;;5428489;26;20381;-79
2024/04/10 05:30:16;;;;;;;12.85;7.28;;;15.00;99.90;;;;;;5432244;26;19999;-79
2024/04/10 05:32:42;;;;;;;12.85;8.35;;;14.90;99.90;;;;;;5416931;26;20007;-80
2024/04/10 05:35:15;;;;;;;17.73;7.28;;;14.70;99.90;;;;;;5416649;26;20009;-82
2024/04/10 05:37:41;;;;;;;13.95;5.82;;;14.70;99.90;;;;;;5414104;26;20498;-82
2024/04/10 05:40:16;;;;;;;6.25;3.33;;;14.50;99.90;;;;;;5413537;26;19999;-81
2024/04/10 05:42:43;;;;;;;7.07;2.25;;;14.40;99.90;;;;;;5416885;26;20000;-81
2024/04/10 05:45:11;;;;;;;3.88;2.25;;;14.40;99.90;;;;;;5420962;26;20384;-80
2024/04/10 05:47:41;;;;;;;9.82;2.00;;;14.30;99.90;;;;;;5443155;26;20007;-80
2024/04/10 05:50:08;;;;;;;9.07;2.25;;;14.20;99.90;;;;;;5388435;26;20007;-80
2024/04/10 05:52:38;;;;;;;1.90;1.70;;;14.10;99.90;;;;;;5432486;26;20002;-80
2024/04/10 05:55:04;;;;;;;8.23;1.85;;;14.10;99.90;;;;;;5427206;26;19991;-80
2024/04/10 05:57:30;;;;;;;5.57;1.75;;;13.90;99.90;;;;;;5420388;26;20188;-79
2024/04/10 05:59:57;;;;;;;4.70;1.70;;;13.80;99.90;;;;;;5427353;26;20005;-79
2024/04/10 06:02:23;;;;;;;9.02;1.48;;;13.80;99.90;;;;;;5429855;26;20417;-80
2024/04/10 06:04:53;;;;;;;6.22;2.00;;;13.70;99.90;;;;;;5424025;26;20467;-80
2024/04/10 06:07:19;;;;;;;8.02;2.08;;;13.70;99.90;;;;;;5426917;26;20308;-79
2024/04/10 06:09:45;;;;;;;7.00;1.52;;;13.70;99.90;;;;;;5430347;26;20042;-80
2024/04/10 06:12:10;;;;;;;5.10;2.38;;;13.70;99.90;;;;;;5426055;26;20376;-79
2024/04/10 06:14:37;;;;;;;5.18;1.77;;;13.70;99.90;;;;;;5419459;26;20039;-79
2024/04/10 06:17:03;;;;;;;4.15;1.35;;;13.70;99.90;;;;;;5426817;26;20435;-80
2024/04/10 06:19:28;;;;;;;4.50;1.10;;;13.60;99.90;;;;;;5426382;26;20006;-79
2024/04/10 06:21:54;;;;;;;3.78;1.38;;;13.60;99.90;;;;;;5414038;26;19996;-79
2024/04/10 06:24:21;;;;;;;4.30;1.60;;;13.50;99.90;;;;;;5433613;26;20005;-80
2024/04/10 06:26:47;;;;;;;5.60;1.30;;;13.50;99.90;;;;;;5428254;26;19996;-79
2024/04/10 06:29:13;;;;;;;2.65;1.30;;;13.60;99.90;;;;;;5435213;26;20001;-80
2024/04/10 06:31:40;;;;;;;2.60;1.40;;;13.60;99.90;;;;;;5430431;26;19995;-79
2024/04/10 06:34:06;;;;;;;7.45;1.65;;;13.70;99.90;;;;;;5431769;26;19991;-80
2024/04/10 06:36:32;;;;;;;4.72;1.67;;;13.70;99.90;;;;;;5431090;26;20463;-80
2024/04/10 06:38:58;;;;;;;1.90;1.70;;;13.70;99.90;;;;;;5433984;26;20051;-80
2024/04/10 06:41:25;;;;;;;6.40;1.58;;;13.70;99.90;;;;;;5435961;26;20380;-80
2024/04/10 06:43:51;;;;;;;4.50;1.20;;;13.80;99.90;;;;;;5429935;26;20001;-80
2024/04/10 06:46:17;;;;;;;1.75;1.38;;;13.80;99.90;;;;;;5427072;26;20011;-80
2024/04/10 06:48:46;;;;;;;3.05;1.35;;;13.80;99.90;;;;;;5431050;26;20003;-80
2024/04/10 06:51:11;;;;;;;4.18;1.55;;;13.80;99.90;;;;;;5430567;26;19995;-80
2024/04/10 06:53:37;;;;;;;4.43;1.50;;;13.90;99.90;;;;;;5427039;26;20027;-79
2024/04/10 06:56:09;;;;;;;4.63;1.33;;;13.90;99.90;;;;;;5429689;26;20010;-80
2024/04/10 06:58:36;;;;;;;5.68;1.33;;;13.90;99.90;;;;;;5430019;26;20027;-80
2024/04/10 07:01:07;;;;;;;1.13;1.00;;;13.90;99.90;;;;;;5432627;26;20011;-80
2024/04/10 07:03:35;;;;;;;2.15;1.02;;;14.00;99.90;;;;;;5426151;26;19995;-79
2024/04/10 07:06:07;;;;;;;5.43;1.48;;;14.00;99.90;;;;;;5431284;26;20552;-80
2024/04/10 07:08:35;;;;;;;2.67;1.30;;;14.10;99.90;;;;;;5427608;26;19996;-80
2024/04/10 07:11:04;;;;;;;3.75;1.50;;;14.20;99.90;;;;;;5434589;26;20011;-80
2024/04/10 07:13:33;;;;;;;2.95;1.88;;;14.30;99.90;;;;;;5425397;26;20007;-80
2024/04/10 07:15:59;;;;;;;6.90;1.70;;;14.40;99.90;;;;;;5430790;26;20005;-79
2024/04/10 07:18:30;;;;;;;12.95;9.00;;;14.50;99.90;;;;;;5425343;26;20010;-80
2024/04/10 07:21:03;;;;;;;10.00;6.90;;;14.70;99.90;;;;;;5449946;26;19999;-80
2024/04/10 07:23:30;;;;;;;10.38;7.55;;;14.70;99.90;;;;;;5450244;26;20043;-80
2024/04/10 07:26:12;;;;;;;9.85;7.57;;;14.80;99.90;;;;;;5436904;26;20337;-79
2024/04/10 07:28:41;;;;;;;21.52;12.02;;;14.90;99.90;;;;;;5432477;26;20091;-80
2024/04/10 07:31:08;;;;;;;10.77;9.60;;;15.00;99.90;;;;;;5430444;26;20031;-80
2024/04/10 07:33:34;;;;;;;16.55;11.25;;;15.00;99.90;;;;;;5437240;26;20449;-79
2024/04/10 07:36:08;;;;;;;10.27;7.90;;;15.00;99.90;;;;;;5436234;26;20020;-79
2024/04/10 07:38:34;;;;;;;18.08;3.50;;;15.00;99.90;;;;;;5430577;26;20003;-79
2024/04/10 07:41:00;;;;;;;5.22;2.53;;;15.00;99.90;;;;;;5437071;26;20082;-80
2024/04/10 07:43:25;;;;;;;9.02;2.03;;;14.90;99.90;;;;;;5428048;26;20002;-80
2024/04/10 07:45:51;;;;;;;5.45;1.98;;;14.80;99.90;;;;;;5431518;26;19999;-80
2024/04/10 07:48:17;;;;;;;7.25;1.85;;;14.70;99.90;;;;;;5426592;26;20033;-80
2024/04/10 07:50:43;;;;;;;4.55;1.60;;;14.70;99.90;;;;;;5426554;26;19996;-80
2024/04/10 07:53:10;;;;;;;5.07;3.03;;;14.60;99.90;;;;;;5432673;26;20002;-80
2024/04/10 07:55:36;;;;;;;8.50;2.08;;;14.50;99.90;;;;;;5429673;26;19995;-79
2024/04/10 07:58:02;;;;;;;4.85;2.00;;;14.40;99.90;;;;;;5432968;26;20329;-80
2024/04/10 08:00:28;;;;;;;7.70;2.55;;;14.40;99.90;;;;;;5435232;26;20483;-81
2024/04/10 08:02:54;;;;;;;6.78;2.28;;;14.20;99.90;;;;;;5433646;26;19999;-82
2024/04/10 08:05:19;;;;;;;4.45;2.13;;;14.10;99.90;;;;;;5434162;26;20011;-83
2024/04/10 08:07:45;;;;;;;5.60;1.95;;;14.00;99.90;;;;;;5429581;26;19990;-82
2024/04/10 08:10:12;;;;;;;5.55;2.15;;;13.70;99.90;;;;;;5430559;26;20392;-81
2024/04/10 08:12:38;;;;;;;8.73;1.67;;;13.60;99.90;;;;;;5438266;26;19998;-82
2024/04/10 08:15:08;;;;;;;5.47;1.25;;;13.50;99.90;;;;;;5435875;26;20441;-81
2024/04/10 08:17:38;;;;;;;3.92;1.90;;;13.50;99.90;;;;;;5429414;26;20006;-81
2024/04/10 08:20:05;;;;;;;4.95;1.85;;;13.40;99.90;;;;;;5433722;26;20002;-81
2024/04/10 08:22:31;;;;;;;3.25;1.67;;;13.40;99.90;;;;;;5429250;26;20022;-81
2024/04/10 08:24:57;;;;;;;4.00;1.55;;;13.30;99.90;;;;;;5430449;26;20298;-81
2024/04/10 08:27:23;;;;;;;2.40;1.33;;;13.30;99.90;;;;;;5437083;26;20421;-81
2024/04/10 08:29:49;;;;;;;2.45;1.23;;;13.20;99.90;;;;;;5429709;26;19991;-81
2024/04/10 08:32:14;;;;;;;6.82;2.03;;;13.20;99.90;;;;;;5435753;26;20367;-81
2024/04/10 08:34:41;;;;;;;4.13;1.52;;;13.30;99.90;;;;;;5422491;26;20007;-81
2024/04/10 08:37:06;;;;;;;2.95;1.20;;;13.30;99.90;;;;;;5435481;26;20003;-81
2024/04/10 08:39:32;;;;;;;2.10;1.20;;;13.20;99.90;;;;;;5429869;26;20006;-81
2024/04/10 08:41:59;;;;;;;1.98;1.63;;;13.20;99.90;;;;;;5434635;26;20006;-81
2024/04/10 08:44:28;;;;;;;2.50;2.00;;;13.10;99.90;;;;;;5431930;26;19996;-81
2024/04/10 08:46:57;;;;;;;3.80;2.60;;;13.20;99.90;;;;;;5429244;26;20016;-81
2024/04/10 08:49:25;;;;;;;7.43;2.30;;;13.20;97.90;;;;;;5433171;26;19995;-81
2024/04/10 08:51:51;;;;;;;5.85;3.20;;;13.20;75.70;;;;;;5437113;26;20079;-81
2024/04/10 08:54:20;;;;;;;2.35;1.40;;;13.30;92.70;;;;;;5429988;26;19996;-81
2024/04/10 08:56:46;;;;;;;6.20;1.55;;;13.30;97.40;;;;;;5438171;26;19999;-81
2024/04/10 08:59:11;;;;;;;6.90;2.72;;;13.30;90.30;;;;;;5436756;26;20009;-81
2024/04/10 09:01:43;;;;;;;3.72;1.90;;;13.30;99.90;;;;;;5437700;26;20007;-81
2024/04/10 09:04:13;;;;;;;4.53;2.28;;;13.30;99.90;;;;;;5428953;26;20007;-81
2024/04/10 09:06:39;;;;;;;3.55;2.03;;;13.30;81.20;;;;;;5424179;26;19995;-81
2024/04/10 09:09:08;;;;;;;4.68;4.30;;;13.30;79.80;;;;;;5417681;26;20000;-81
2024/04/10 09:11:37;;;;;;;4.32;3.83;;;13.40;86.90;;;;;;5421990;26;19995;-81
2024/04/10 09:14:07;;;;;;;7.43;1.52;;;13.50;70.30;;;;;;5422551;26;19999;-81
2024/04/10 09:16:34;;;;;;;2.15;0.98;;;13.50;83.40;;;;;;5430412;26;19996;-81
2024/04/10 09:19:16;;;;;;;5.00;1.10;;;13.50;75.90;;;;;;5427696;26;20467;-81
2024/04/10 09:21:44;;;;;;;1.23;1.13;;;13.60;95.30;;;;;;5460990;26;20068;-81
2024/04/10 09:24:10;;;;;;;2.33;0.90;;;13.60;71.60;;;;;;5432879;26;20001;-81
2024/04/10 09:26:37;;;;;;;1.50;1.17;;;13.60;46.60;;;;;;5432687;26;20449;-82
2024/04/10 09:29:08;;;;;;;2.38;0.95;;;13.70;45.70;;;;;;5431155;26;20021;-81
2024/04/10 09:31:35;;;;;;;3.05;1.33;;;13.70;31.00;;;;;;5435361;26;20002;-82
2024/04/10 09:34:01;;;;;;;1.08;0.80;;;13.80;71.60;;;;;;5424228;26;20010;-81
2024/04/10 09:36:32;;;;;;;3.20;1.30;;;13.70;34.20;;;;;;5435108;26;20185;-82
2024/04/10 09:39:00;;;;;;;0.65;0.65;;;13.80;43.60;;;;;;5430037;26;20006;-82
2024/04/10 09:41:28;;;;;;;3.40;1.05;;;13.90;43.70;;;;;;5435193;26;19991;-82
2024/04/10 09:43:58;;;;;;;2.10;1.42;;;14.00;1.00;;;;;;5431325;26;20000;-82
2024/04/10 09:46:38;;;;;;;2.10;0.95;;;14.10;26.70;;;;;;5427239;26;20341;-82
2024/04/10 09:49:10;;;;;;;4.40;1.42;;;14.10;5.00;;;;;;5426699;26;20337;-81
2024/04/10 09:51:41;;;;;;;2.20;1.10;;;14.20;7.60;;;;;;5429290;26;20006;-82
2024/04/10 09:54:08;;;;;;;1.15;0.80;;;14.20;17.00;;;;;;5436722;26;20035;-82
2024/04/10 09:56:36;;;;;;;1.77;0.80;;;14.30;10.70;;;;;;5432867;26;19999;-82
2024/04/10 09:59:03;;;;;;;2.70;0.70;;;14.30;1.00;;;;;;5433556;26;20330;-82
2024/04/10 10:01:29;;;;;;;1.83;0.98;;;14.30;4.70;;;;;;5430670;26;20006;-82
2024/04/10 10:03:56;;;;;;;1.25;1.00;;;14.30;31.20;;;;;;5431082;26;19995;-82
2024/04/10 10:06:28;;;;;;;1.35;1.25;;;14.40;30.00;;;;;;5433289;26;20354;-82
2024/04/10 10:10:27;;;;;;;1.23;0.85;;;14.50;34.60;;;;;;5527870;25;20422;-82
2024/04/10 10:12:52;;;;;;;4.72;1.60;;;14.70;29.90;;;;;;5484494;25;20339;-82
2024/04/10 10:15:22;;;;;;;2.53;1.42;;;14.70;45.30;;;;;;5489398;26;20464;-82
2024/04/10 10:17:53;;;;;;;9.15;8.35;;;14.80;66.60;;;;;;5484922;25;19999;-82
2024/04/10 10:20:20;;;;;;;14.70;12.88;;;14.80;99.90;;;;;;5483428;26;19991;-82
2024/04/10 10:23:00;;;;;;;1.25;1.13;;;15.00;99.90;;;;;;5490485;26;20008;-82
2024/04/10 10:25:27;;;;;;;3.75;0.98;;;14.90;24.20;;;;;;5449268;26;20010;-82
2024/04/10 10:28:06;;;;;;;1.67;0.73;;;14.80;1.00;;;;;;5487831;26;20057;-82
2024/04/10 10:30:32;;;;;;;1.75;0.85;;;14.60;1.00;;;;;;5488519;26;19995;-82
2024/04/10 10:33:05;;;;;;;4.63;0.80;;;14.60;1.00;;;;;;5479727;26;20010;-82
2024/04/10 10:35:31;;;;;;;1.70;0.55;;;14.50;1.00;;;;;;5483613;26;20332;-82
2024/04/10 10:37:58;;;;;;;3.17;0.80;;;14.50;1.00;;;;;;5487245;26;19999;-82
2024/04/10 10:40:24;;;;;;;0.68;0.60;;;14.40;1.00;;;;;;5484544;26;20005;-82
2024/04/10 10:43:11;;;;;;;2.42;0.80;;;14.40;1.00;;;;;;5486571;26;20401;-81
2024/04/10 10:45:37;;;;;;;1.25;0.70;;;14.30;1.00;;;;;;5479360;26;19994;-81
2024/04/10 10:48:04;;;;;;;0.52;0.52;;;14.20;1.00;;;;;;5487453;26;20361;-82
2024/04/10 10:50:33;;;;;;;4.88;0.98;;;14.20;1.00;;;;;;5479474;26;20070;-81
2024/04/10 10:53:02;;;;;;;1.73;0.80;;;14.20;1.00;;;;;;5483649;26;19990;-81
2024/04/10 10:55:28;;;;;;;4.68;0.80;;;14.20;1.00;;;;;;5486886;26;20069;-81
2024/04/10 10:58:04;;;;;;;4.72;2.63;;;14.10;1.00;;;;;;5484056;26;20436;-81
2024/04/10 11:00:32;;;;;;;3.95;0.85;;;14.10;1.00;;;;;;5484710;26;20022;-81
2024/04/10 11:03:11;;;;;;;1.10;0.60;;;14.10;1.00;;;;;;5487893;26;19998;-81
2024/04/10 11:05:37;;;;;;;2.28;0.57;;;14.10;1.00;;;;;;5482954;26;20013;-81
2024/04/10 11:08:07;;;;;;;3.13;0.60;;;14.10;1.00;;;;;;5488521;26;20439;-81
2024/04/10 11:10:32;;;;;;;2.67;1.00;;;14.10;1.00;;;;;;5474980;26;19995;-81
2024/04/10 11:13:04;;;;;;;1.55;0.70;;;14.10;1.00;;;;;;5488177;26;20001;-81
2024/04/10 11:15:43;;;;;;;4.43;1.02;;;14.10;1.00;;;;;;5476195;26;20014;-80
2024/04/10 11:18:09;;;;;;;2.78;1.00;;;14.10;1.00;;;;;;5478407;26;20074;-81
2024/04/10 11:20:35;;;;;;;1.20;0.73;;;14.10;1.00;;;;;;5474925;26;19990;-81
2024/04/10 11:23:02;;;;;;;1.55;0.85;;;14.10;1.00;;;;;;5468380;26;19997;-81
2024/04/10 11:25:29;;;;;;;0.60;0.60;;;14.10;1.00;;;;;;5464938;26;19998;-80
2024/04/10 11:27:59;;;;;;;1.35;0.60;;;14.10;1.00;;;;;;5462630;26;20047;-80
2024/04/10 11:30:26;;;;;;;3.38;0.73;;;14.10;99.90;;;;;;5460661;26;19998;-80
2024/04/10 11:32:52;;;;;;;2.05;0.60;;;14.00;1.00;;;;;;5466482;26;20008;-80
2024/04/10 11:35:18;;;;;;;2.15;0.68;;;14.00;1.00;;;;;;5461107;26;19998;-80
2024/04/10 11:37:45;;;;;;;1.98;0.73;;;14.00;1.00;;;;;;5459678;26;20278;-80
2024/04/10 11:40:13;;;;;;;1.80;0.77;;;14.10;1.00;;;;;;5457595;26;20013;-80
2024/04/10 11:42:43;;;;;;;2.28;0.70;;;14.10;99.90;;;;;;5466179;26;19998;-80
2024/04/10 11:45:09;;;;;;;0.88;0.70;;;14.20;1.00;;;;;;5467973;26;20323;-80
2024/04/10 11:47:36;;;;;;;0.63;0.63;;;14.10;99.90;;;;;;5453511;26;20015;-79
2024/04/10 11:50:04;;;;;;;1.65;1.10;;;14.20;99.90;;;;;;5441658;26;20331;-80
2024/04/10 11:52:31;;;;;;;1.75;0.77;;;14.20;99.90;;;;;;5465666;26;19995;-79
2024/04/10 11:54:58;;;;;;;0.80;0.65;;;14.20;99.90;;;;;;5456458;26;20256;-79
2024/04/10 11:57:24;;;;;;;0.82;0.82;;;14.20;99.90;;;;;;5465182;26;20005;-79
2024/04/10 11:59:50;;;;;;;0.50;0.45;;;14.20;1.00;;;;;;5462166;26;20405;-80
2024/04/10 12:02:15;;;;;;;1.08;0.85;;;14.20;1.00;;;;;;5474579;26;20010;-78
2024/04/10 12:04:42;;;;;;;1.13;0.60;;;14.10;4.70;;;;;;5467817;26;20424;-79
2024/04/10 12:07:08;;;;;;;1.45;0.75;;;14.00;24.30;;;;;;5459510;26;20070;-79
2024/04/10 12:09:34;;;;;;;0.80;0.80;;;14.00;39.50;;;;;;5460025;26;19999;-80
2024/04/10 12:12:00;;;;;;;0.68;0.65;;;14.10;37.90;;;;;;5439668;26;20015;-79
2024/04/10 12:14:25;;;;;;;1.50;0.65;;;14.20;16.80;;;;;;5460371;26;19999;-80
2024/04/10 12:16:51;;;;;;;1.45;0.93;;;14.30;1.00;;;;;;5454046;26;19994;-80
2024/04/10 12:19:17;;;;;;;0.45;0.45;;;14.40;1.00;;;;;;5444818;26;20076;-80
2024/04/10 12:21:43;;;;;;;2.05;0.65;;;14.40;1.00;;;;;;5458419;26;19999;-80
2024/04/10 12:24:08;;;;;;;0.70;0.70;;;14.50;1.00;;;;;;5466068;26;20032;-80
2024/04/10 12:26:35;;;;;;;0.45;0.45;;;14.50;1.00;;;;;;5470796;26;19997;-80
2024/04/10 12:29:01;;;;;;;1.23;0.60;;;14.50;1.00;;;;;;5465403;26;20003;-80
2024/04/10 12:31:26;;;;;;;2.88;0.73;;;14.60;1.00;;;;;;5462402;26;20024;-80
2024/04/10 12:33:52;;;;;;;1.15;0.70;;;14.70;1.00;;;;;;5461368;26;20299;-80
2024/04/10 12:39:06;;;;;;;0.95;0.70;;;14.90;99.90;;;;;;5453927;26;20067;-80
2024/04/10 12:41:32;;;;;;;3.30;0.68;;;15.00;99.90;;;;;;5457379;26;20010;-80
2024/04/10 12:44:04;;;;;;;3.65;0.70;;;15.20;99.90;;;;;;5446300;26;20341;-80
2024/04/10 12:46:30;;;;;;;1.45;0.80;;;15.30;99.90;;;;;;5488832;26;20017;-79